Time;durP1;ratioP1;P1;durP2;ratioP2;P2;SDS_P1;SDS_P2;PMS_P1;PMS_P2;Temp;Humidity;BMP_temperature;BMP_pressure;BME280_temperature;BME280_humidity;BME280_pressure;Samples;Min_cycle;Max_cycle;Signal;HPM_P1;HPM_P2
2021/03/06 00:00:17;;;;;;;46.10;28.00;;;153.90;2252.80;;;;;;5082960;28;20028;-68
2021/03/06 00:02:43;;;;;;;49.05;27.70;;;153.70;2252.80;;;;;;5082801;28;20036;-69
2021/03/06 00:05:11;;;;;;;49.47;28.85;;;153.60;2252.80;;;;;;5083153;28;20329;-68
2021/03/06 00:07:37;;;;;;;47.08;26.90;;;128.90;2252.80;;;;;;5079788;28;20404;-67
2021/03/06 00:10:10;;;;;;;46.15;27.63;;;128.80;2252.80;;;;;;5079692;28;20406;-68
2021/03/06 00:12:37;;;;;;;50.53;29.90;;;128.70;2252.80;;;;;;5080230;28;20332;-70
2021/03/06 00:15:04;;;;;;;54.53;32.97;;;128.70;2252.80;;;;;;5080093;28;20025;-68
2021/03/06 00:17:30;;;;;;;61.63;35.40;;;128.60;2252.80;;;;;;5079462;28;20033;-68
2021/03/06 00:19:56;;;;;;;62.78;38.10;;;128.60;2252.80;;;;;;5079721;28;20024;-69
2021/03/06 00:22:21;;;;;;;65.35;36.53;;;128.50;2252.80;;;;;;5079938;28;20031;-68
2021/03/06 00:24:47;;;;;;;61.47;32.92;;;128.40;2252.80;;;;;;5080003;28;20037;-69
2021/03/06 00:27:13;;;;;;;69.75;38.85;;;128.40;2252.80;;;;;;5079648;28;20059;-71
2021/03/06 00:29:39;;;;;;;69.43;38.95;;;128.30;2252.80;;;;;;5079629;28;20047;-70
2021/03/06 00:32:05;;;;;;;66.15;37.58;;;128.30;2252.80;;;;;;5079291;28;20028;-69
2021/03/06 00:34:31;;;;;;;67.85;40.08;;;128.30;2252.80;;;;;;5079774;28;20025;-70
2021/03/06 00:36:56;;;;;;;71.50;42.47;;;128.20;2252.80;;;;;;5078920;28;20031;-69
2021/03/06 00:39:22;;;;;;;65.75;39.28;;;128.20;2252.80;;;;;;5079153;28;20024;-70
2021/03/06 00:41:48;;;;;;;64.07;36.72;;;128.10;2252.80;;;;;;5079404;28;20024;-68
2021/03/06 00:44:13;;;;;;;64.28;34.78;;;128.10;2252.80;;;;;;5079530;28;20025;-68
2021/03/06 00:46:39;;;;;;;53.90;32.97;;;103.30;2227.20;;;;;;5078699;28;20039;-69
2021/03/06 00:49:05;;;;;;;51.47;30.70;;;103.20;2227.20;;;;;;5078973;28;20036;-70
2021/03/06 00:51:32;;;;;;;49.70;29.60;;;103.00;2227.20;;;;;;5079004;28;20036;-70
2021/03/06 00:53:57;;;;;;;50.10;30.08;;;102.60;2227.20;;;;;;5079188;28;20028;-69
2021/03/06 00:56:23;;;;;;;48.05;28.52;;;102.50;2227.20;;;;;;5079112;28;20032;-69
2021/03/06 00:58:49;;;;;;;50.28;26.40;;;102.40;2227.20;;;;;;5079317;28;20021;-70
2021/03/06 01:01:15;;;;;;;40.78;23.42;;;102.40;2227.20;;;;;;5078730;28;20028;-70
2021/03/06 01:03:40;;;;;;;46.08;26.25;;;77.70;2227.20;;;;;;5078869;28;20467;-70
2021/03/06 01:06:07;;;;;;;43.03;24.08;;;77.60;2227.20;;;;;;5078646;28;20028;-69
2021/03/06 01:08:34;;;;;;;39.55;23.90;;;77.50;2227.20;;;;;;5078551;28;20394;-70
2021/03/06 01:11:00;;;;;;;40.50;24.00;;;77.40;2227.20;;;;;;5078281;28;20025;-69
2021/03/06 01:13:27;;;;;;;38.13;22.65;;;77.30;2227.20;;;;;;5078412;28;20044;-70
2021/03/06 01:15:53;;;;;;;41.55;23.65;;;77.10;2227.20;;;;;;5078193;28;20067;-70
2021/03/06 01:18:19;;;;;;;33.30;19.65;;;77.10;2227.20;;;;;;5077785;28;20048;-69
2021/03/06 01:20:44;;;;;;;36.15;20.35;;;76.90;2227.20;;;;;;5078371;28;20400;-70
2021/03/06 01:23:10;;;;;;;38.45;21.25;;;76.90;2227.20;;;;;;5079123;28;20032;-70
2021/03/06 01:25:36;;;;;;;31.33;17.13;;;76.80;2227.20;;;;;;5078510;28;20111;-70
2021/03/06 01:28:02;;;;;;;21.80;12.73;;;52.10;2227.20;;;;;;5078178;28;20077;-69
2021/03/06 01:30:28;;;;;;;23.52;11.88;;;52.00;2227.20;;;;;;5078386;28;20020;-70
2021/03/06 01:32:54;;;;;;;18.48;11.60;;;51.90;2227.20;;;;;;5078297;28;20039;-69
2021/03/06 01:35:23;;;;;;;18.67;11.80;;;51.90;2227.20;;;;;;5078052;28;20028;-70
2021/03/06 01:37:49;;;;;;;;;;;51.90;2227.20;;;;;;5078713;28;20052;-70
2021/03/06 01:40:23;;;;;;;14.70;8.52;;;51.80;2227.20;;;;;;5078228;28;19904;-70
2021/03/06 01:42:49;;;;;;;11.10;6.68;;;51.70;2227.20;;;;;;5078001;28;20085;-70
2021/03/06 01:45:16;;;;;;;7.65;4.75;;;51.60;2227.20;;;;;;5078436;28;20360;-69
2021/03/06 01:47:41;;;;;;;6.80;4.55;;;51.40;2227.20;;;;;;5077812;28;20058;-68
2021/03/06 01:50:08;;;;;;;6.78;4.47;;;51.40;2227.20;;;;;;5078063;28;20025;-69
2021/03/06 01:52:35;;;;;;;6.65;4.22;;;51.30;2227.20;;;;;;5078118;28;20385;-69
2021/03/06 01:55:02;;;;;;;8.00;4.53;;;51.30;2227.20;;;;;;5077988;28;20028;-69
2021/03/06 01:57:28;;;;;;;7.32;4.47;;;51.30;2227.20;;;;;;5077903;28;20107;-69
2021/03/06 01:59:54;;;;;;;6.95;4.22;;;51.20;2227.20;;;;;;5077611;28;20103;-69
2021/03/06 02:02:20;;;;;;;6.95;4.00;;;51.20;2227.20;;;;;;5077240;28;20111;-69
2021/03/06 02:04:46;;;;;;;7.28;4.35;;;51.20;2227.20;;;;;;5077766;28;20115;-69
2021/03/06 02:07:12;;;;;;;6.75;4.03;;;51.20;2227.20;;;;;;5078051;28;20028;-68
2021/03/06 02:09:37;;;;;;;7.63;4.63;;;26.50;2201.60;;;;;;5077152;28;20107;-69
2021/03/06 02:12:18;;;;;;;9.40;4.45;;;51.20;2227.20;;;;;;5077407;28;20045;-69
2021/03/06 02:15:18;;;;;;;6.85;4.07;;;51.20;2227.20;;;;;;5077686;28;20116;-69
2021/03/06 02:18:19;;;;;;;6.45;4.15;;;51.20;2227.20;;;;;;5077644;28;20024;-69
2021/03/06 02:21:24;;;;;;;6.28;3.83;;;51.20;2227.20;;;;;;5077604;28;20047;-69
2021/03/06 02:24:15;;;;;;;6.57;3.92;;;26.50;2201.60;;;;;;5076918;28;20330;-69
2021/03/06 02:27:02;;;;;;;5.45;3.70;;;26.50;2201.60;;;;;;5077555;28;20425;-69
2021/03/06 02:29:45;;;;;;;7.32;4.47;;;51.20;2227.20;;;;;;5077380;28;20027;-69
2021/03/06 02:32:27;;;;;;;7.65;4.68;;;26.50;2201.60;;;;;;5077187;28;20027;-69
2021/03/06 02:35:15;;;;;;;7.40;4.57;;;51.20;2227.20;;;;;;5077167;28;20127;-69
2021/03/06 02:37:56;;;;;;;6.13;4.28;;;51.20;2227.20;;;;;;5077453;28;20028;-68
2021/03/06 02:40:24;;;;;;;5.85;4.00;;;51.20;2227.20;;;;;;5077384;28;20024;-69
2021/03/06 02:42:52;;;;;;;6.75;4.50;;;51.20;2227.20;;;;;;5076995;28;20392;-69
2021/03/06 02:45:19;;;;;;;7.60;4.70;;;26.50;2201.60;;;;;;5076735;28;20414;-69
2021/03/06 02:47:46;;;;;;;7.25;4.60;;;26.50;2201.60;;;;;;5076941;28;20028;-69
2021/03/06 02:50:12;;;;;;;8.32;4.97;;;26.50;2201.60;;;;;;5076904;28;20023;-69
2021/03/06 02:52:38;;;;;;;8.57;4.50;;;26.50;2201.60;;;;;;5076766;28;20127;-69
2021/03/06 02:55:10;;;;;;;7.85;4.97;;;26.50;2201.60;;;;;;5076942;28;20116;-69
2021/03/06 02:58:13;;;;;;;7.65;4.85;;;26.40;2201.60;;;;;;5077468;28;20074;-69
2021/03/06 03:00:48;;;;;;;8.93;5.50;;;26.30;2201.60;;;;;;5077113;28;20024;-69
2021/03/06 03:03:23;;;;;;;8.40;5.32;;;26.20;2201.60;;;;;;5077114;28;20032;-69
2021/03/06 03:06:03;;;;;;;9.25;5.60;;;26.20;2201.60;;;;;;5077124;28;20028;-69
2021/03/06 03:08:48;;;;;;;10.00;5.90;;;26.10;2201.60;;;;;;5077320;28;20028;-69
2021/03/06 03:11:28;;;;;;;8.43;4.93;;;26.10;2201.60;;;;;;5077099;28;20429;-69
2021/03/06 03:13:56;;;;;;;7.80;5.32;;;26.00;2201.60;;;;;;5076715;28;20036;-69
2021/03/06 03:16:49;;;;;;;9.23;5.45;;;26.10;2201.60;;;;;;5077271;28;20021;-69
2021/03/06 03:19:35;;;;;;;8.90;5.80;;;26.00;2201.60;;;;;;5068999;28;20029;-68
2021/03/06 03:22:04;;;;;;;10.20;5.95;;;26.00;2201.60;;;;;;5077264;28;20017;-69
2021/03/06 03:24:35;;;;;;;13.57;10.27;;;25.90;2201.60;;;;;;5076575;28;20381;-68
2021/03/06 03:27:05;;;;;;;10.30;6.40;;;25.80;2201.60;;;;;;5076624;28;20024;-68
2021/03/06 03:29:32;;;;;;;10.85;7.70;;;25.90;2201.60;;;;;;5076809;28;20028;-68
2021/03/06 03:31:59;;;;;;;10.77;7.28;;;25.80;2201.60;;;;;;5075858;28;20031;-68
2021/03/06 03:34:25;;;;;;;12.50;7.43;;;25.80;2201.60;;;;;;5076093;28;20086;-68
2021/03/06 03:36:53;;;;;;;12.30;7.38;;;25.70;2201.60;;;;;;5077064;28;20020;-68
2021/03/06 03:39:20;;;;;;;11.68;6.93;;;25.60;2201.60;;;;;;5076666;28;20032;-68
2021/03/06 03:41:47;;;;;;;12.68;7.85;;;25.70;2201.60;;;;;;5077246;28;20127;-68
2021/03/06 03:44:15;;;;;;;13.23;8.05;;;25.60;2201.60;;;;;;5080164;28;20426;-68
2021/03/06 03:46:42;;;;;;;14.65;8.45;;;0.90;2201.60;;;;;;5080450;28;20024;-67
2021/03/06 03:49:14;;;;;;;15.38;8.88;;;0.90;2201.60;;;;;;5079499;28;20436;-68
2021/03/06 03:51:41;;;;;;;15.30;8.98;;;0.90;2201.60;;;;;;5080217;28;20389;-68
2021/03/06 03:54:07;;;;;;;13.98;7.43;;;25.60;2201.60;;;;;;5080254;28;20060;-67
2021/03/06 03:56:34;;;;;;;15.15;8.40;;;0.90;2201.60;;;;;;5080275;28;20039;-68
2021/03/06 03:59:00;;;;;;;20.25;13.10;;;0.80;2201.60;;;;;;5080186;28;20422;-67
2021/03/06 04:01:26;;;;;;;20.85;13.68;;;0.80;2201.60;;;;;;5079592;28;20033;-68
2021/03/06 04:03:52;;;;;;;17.38;9.88;;;0.90;2201.60;;;;;;5080356;28;20035;-68
2021/03/06 04:06:17;;;;;;;16.92;9.48;;;0.80;2201.60;;;;;;5080383;28;20025;-67
2021/03/06 04:08:43;;;;;;;19.08;12.30;;;0.80;2201.60;;;;;;5079774;28;20031;-67
2021/03/06 04:11:09;;;;;;;18.63;12.32;;;0.80;2201.60;;;;;;5079976;28;20112;-68
2021/03/06 04:13:35;;;;;;;17.92;10.15;;;0.70;2201.60;;;;;;5079798;28;20035;-67
2021/03/06 04:16:01;;;;;;;17.83;10.60;;;0.70;2201.60;;;;;;5079625;28;20032;-69
2021/03/06 04:18:26;;;;;;;23.48;12.40;;;0.70;2201.60;;;;;;5079541;28;20024;-68
2021/03/06 04:20:52;;;;;;;21.98;12.20;;;0.80;2201.60;;;;;;5079821;28;20380;-68
2021/03/06 04:23:18;;;;;;;19.50;11.05;;;0.80;2201.60;;;;;;5093775;28;20363;-67
2021/03/06 04:25:44;;;;;;;21.73;12.23;;;0.80;2201.60;;;;;;5089839;28;20035;-68
2021/03/06 04:28:10;;;;;;;22.25;12.30;;;0.70;2201.60;;;;;;5079965;28;20066;-68
2021/03/06 04:30:36;;;;;;;20.17;11.88;;;0.80;2201.60;;;;;;5079397;28;20024;-69
2021/03/06 04:33:02;;;;;;;24.15;12.60;;;0.80;2201.60;;;;;;5079497;28;20039;-68
2021/03/06 04:35:27;;;;;;;23.63;12.15;;;0.80;2201.60;;;;;;5079276;28;20032;-69
2021/03/06 04:37:53;;;;;;;21.40;12.65;;;0.80;2201.60;;;;;;5080653;28;20427;-68
2021/03/06 04:40:19;;;;;;;24.23;13.93;;;0.70;2201.60;;;;;;5079145;28;20059;-68
2021/03/06 04:42:45;;;;;;;26.15;13.48;;;0.70;2201.60;;;;;;5079111;28;20028;-69
2021/03/06 04:45:11;;;;;;;23.60;13.38;;;0.70;2201.60;;;;;;5079394;28;20074;-68
2021/03/06 04:47:42;;;;;;;23.05;13.00;;;0.60;2201.60;;;;;;5079582;28;20418;-68
2021/03/06 04:50:08;;;;;;;25.10;13.13;;;0.60;2201.60;;;;;;5079319;28;20098;-67
2021/03/06 04:52:34;;;;;;;23.52;13.07;;;0.50;2201.60;;;;;;5079054;28;20052;-69
2021/03/06 04:55:00;;;;;;;23.00;12.65;;;0.50;2201.60;;;;;;5083886;28;20024;-69
2021/03/06 04:57:26;;;;;;;23.92;12.98;;;0.50;2201.60;;;;;;5086788;28;20078;-68
2021/03/06 04:59:52;;;;;;;24.73;14.45;;;0.50;2201.60;;;;;;5077123;28;20024;-68
2021/03/06 05:02:18;;;;;;;23.85;13.57;;;0.50;2201.60;;;;;;5077730;28;20078;-70
2021/03/06 05:04:43;;;;;;;28.50;14.98;;;0.50;2201.60;;;;;;5078581;28;20029;-67
2021/03/06 05:07:09;;;;;;;23.40;12.98;;;0.50;2201.60;;;;;;5079246;28;20043;-68
2021/03/06 05:09:35;;;;;;;24.30;12.30;;;0.60;2201.60;;;;;;5079068;28;20024;-69
2021/03/06 05:12:01;;;;;;;21.27;12.07;;;0.60;2201.60;;;;;;5077726;28;20028;-68
2021/03/06 05:14:26;;;;;;;20.17;11.55;;;0.80;2201.60;;;;;;5077304;28;20085;-68
2021/03/06 05:16:52;;;;;;;22.80;12.32;;;0.80;2201.60;;;;;;5076828;28;20024;-67
2021/03/06 05:19:18;;;;;;;19.90;12.27;;;0.80;2201.60;;;;;;5077000;28;20025;-69
2021/03/06 05:21:44;;;;;;;21.95;11.27;;;0.90;2201.60;;;;;;5076632;28;20039;-69
2021/03/06 05:24:10;;;;;;;20.63;11.32;;;25.60;2201.60;;;;;;5076663;28;20032;-70
2021/03/06 05:26:35;;;;;;;19.67;12.63;;;25.60;2201.60;;;;;;5076888;28;20024;-70
2021/03/06 05:29:01;;;;;;;19.48;10.25;;;25.60;2201.60;;;;;;5077717;28;20445;-69
2021/03/06 05:31:28;;;;;;;15.55;9.75;;;25.70;2201.60;;;;;;5078172;28;20082;-69
2021/03/06 05:33:54;;;;;;;16.35;8.45;;;25.70;2201.60;;;;;;5078336;28;20306;-68
2021/03/06 05:36:19;;;;;;;20.13;10.25;;;25.70;2201.60;;;;;;5078035;28;20035;-68
2021/03/06 05:38:45;;;;;;;15.60;9.13;;;25.70;2201.60;;;;;;5077989;28;20445;-69
2021/03/06 05:41:11;;;;;;;18.10;9.20;;;25.80;2201.60;;;;;;5078260;28;20020;-68
2021/03/06 05:43:37;;;;;;;14.63;9.38;;;25.80;2201.60;;;;;;5078106;28;20426;-69
2021/03/06 05:46:04;;;;;;;16.00;8.70;;;25.90;2201.60;;;;;;5078091;28;20024;-71
2021/03/06 05:48:30;;;;;;;16.88;9.45;;;25.90;2201.60;;;;;;5078288;28;20028;-69
2021/03/06 05:50:56;;;;;;;16.98;8.85;;;26.00;2201.60;;;;;;5077946;28;20339;-69
2021/03/06 05:53:24;;;;;;;13.88;8.57;;;26.00;2201.60;;;;;;5077209;28;20048;-69
2021/03/06 05:55:55;;;;;;;20.17;9.95;;;26.00;2201.60;;;;;;5077952;28;20028;-70
2021/03/06 05:58:22;;;;;;;19.67;8.90;;;26.10;2201.60;;;;;;5077919;28;20028;-68
2021/03/06 06:00:49;;;;;;;17.30;9.23;;;26.10;2201.60;;;;;;5077782;28;20039;-69
2021/03/06 06:03:18;;;;;;;15.80;8.85;;;26.10;2201.60;;;;;;5077567;28;20483;-69
2021/03/06 06:05:46;;;;;;;;;;;26.10;2201.60;;;;;;5077616;28;20027;-70
2021/03/06 06:08:14;;;;;;;18.65;9.40;;;26.10;2201.60;;;;;;5077741;28;20274;-69
2021/03/06 06:10:40;;;;;;;17.20;9.82;;;26.10;2201.60;;;;;;5084553;28;20066;-70
2021/03/06 06:13:05;;;;;;;15.38;10.27;;;26.10;2201.60;;;;;;5085758;28;20028;-71
2021/03/06 06:15:31;;;;;;;15.15;9.65;;;26.20;2201.60;;;;;;5087333;28;20448;-68
2021/03/06 06:17:58;;;;;;;16.40;9.75;;;26.20;2201.60;;;;;;5087632;28;20368;-70
2021/03/06 06:20:24;;;;;;;15.07;9.25;;;26.30;2201.60;;;;;;5079652;28;20029;-69
2021/03/06 06:23:11;;;;;;;19.83;10.27;;;26.30;2201.60;;;;;;5077562;28;20035;-70
2021/03/06 06:25:37;;;;;;;19.25;9.88;;;26.40;2201.60;;;;;;5077782;28;20038;-70
2021/03/06 06:28:05;;;;;;;18.45;10.88;;;26.40;2201.60;;;;;;5077730;28;20024;-70
2021/03/06 06:30:31;;;;;;;15.73;9.45;;;51.20;2227.20;;;;;;5077175;28;20028;-69
2021/03/06 06:32:57;;;;;;;18.38;10.65;;;26.50;2201.60;;;;;;5076437;28;20087;-71
2021/03/06 06:35:23;;;;;;;16.52;10.13;;;51.20;2227.20;;;;;;5076648;28;20361;-68
2021/03/06 06:37:56;;;;;;;16.10;10.15;;;51.20;2227.20;;;;;;5076843;28;20077;-69
2021/03/06 06:40:24;;;;;;;16.95;10.50;;;51.20;2227.20;;;;;;5075716;28;20371;-69
2021/03/06 06:42:50;;;;;;;19.37;10.67;;;51.20;2227.20;;;;;;5075544;28;20032;-68
2021/03/06 06:45:16;;;;;;;18.38;9.85;;;51.30;2227.20;;;;;;5076695;28;20410;-69
2021/03/06 06:47:47;;;;;;;15.10;9.32;;;51.40;2227.20;;;;;;5076436;28;20024;-70
2021/03/06 06:50:15;;;;;;;20.98;10.07;;;51.50;2227.20;;;;;;5076412;28;20108;-70
2021/03/06 06:52:42;;;;;;;15.10;9.25;;;51.60;2227.20;;;;;;5076933;28;20044;-70
2021/03/06 06:55:11;;;;;;;22.20;9.93;;;51.80;2227.20;;;;;;5077374;28;20035;-70
2021/03/06 06:57:51;;;;;;;20.03;10.17;;;51.80;2227.20;;;;;;5077211;28;20024;-70
2021/03/06 07:00:18;;;;;;;19.20;10.60;;;51.90;2227.20;;;;;;5077491;28;20029;-69
2021/03/06 07:03:03;;;;;;;20.20;12.10;;;52.00;2227.20;;;;;;5077365;28;20069;-70
2021/03/06 07:05:34;;;;;;;21.02;12.13;;;76.80;2227.20;;;;;;5077159;28;20028;-70
2021/03/06 07:08:08;;;;;;;23.35;12.57;;;76.90;2227.20;;;;;;5077350;28;20029;-70
2021/03/06 07:10:38;;;;;;;22.50;12.88;;;76.80;2227.20;;;;;;5079386;28;20035;-70
2021/03/06 07:13:06;;;;;;;21.38;13.20;;;76.80;2227.20;;;;;;5085864;28;20036;-71
2021/03/06 07:15:33;;;;;;;21.05;13.27;;;77.00;2227.20;;;;;;5085755;28;20027;-71
2021/03/06 07:18:02;;;;;;;23.25;13.40;;;76.80;2227.20;;;;;;5090986;28;20031;-70
2021/03/06 07:20:34;;;;;;;23.95;13.35;;;77.10;2227.20;;;;;;5096374;28;20030;-71
2021/03/06 07:23:22;;;;;;;19.85;12.45;;;77.00;2227.20;;;;;;5099535;28;20028;-71
2021/03/06 07:25:55;;;;;;;18.90;12.10;;;76.90;2227.20;;;;;;5099454;28;20024;-71
2021/03/06 07:28:21;;;;;;;24.73;14.65;;;76.80;2227.20;;;;;;5100072;28;20109;-71
2021/03/06 07:30:48;;;;;;;22.83;13.88;;;76.80;2227.20;;;;;;5100256;28;20341;-70
2021/03/06 07:33:16;;;;;;;20.30;11.55;;;76.90;2227.20;;;;;;5100165;28;20045;-71
2021/03/06 07:35:44;;;;;;;20.45;13.25;;;77.00;2227.20;;;;;;5100509;28;20406;-70
2021/03/06 07:38:14;;;;;;;21.80;12.88;;;77.00;2227.20;;;;;;5100089;28;20032;-71
2021/03/06 07:40:42;;;;;;;18.00;11.52;;;77.00;2227.20;;;;;;5101134;28;20074;-69
2021/03/06 07:43:20;;;;;;;20.75;12.73;;;77.10;2227.20;;;;;;5100793;28;20027;-71
2021/03/06 07:45:51;;;;;;;20.27;12.05;;;77.30;2227.20;;;;;;5100285;28;20016;-70
2021/03/06 07:48:21;;;;;;;20.50;12.25;;;77.40;2227.20;;;;;;5100784;28;20020;-71
2021/03/06 07:50:50;;;;;;;19.45;11.63;;;77.60;2227.20;;;;;;5100320;28;20020;-71
2021/03/06 07:53:17;;;;;;;19.95;11.60;;;77.60;2227.20;;;;;;5100245;28;20052;-70
2021/03/06 07:55:43;;;;;;;21.20;11.68;;;77.50;2227.20;;;;;;5100379;28;20388;-69
2021/03/06 07:58:17;;;;;;;17.90;10.70;;;77.60;2227.20;;;;;;5100042;28;20035;-69
2021/03/06 08:00:54;;;;;;;17.35;11.68;;;77.50;2227.20;;;;;;5100200;28;20015;-71
2021/03/06 08:03:33;;;;;;;17.88;10.35;;;77.50;2227.20;;;;;;5099474;28;20127;-70
2021/03/06 08:06:06;;;;;;;21.00;11.25;;;77.60;2227.20;;;;;;5100377;28;20332;-69
2021/03/06 08:08:32;;;;;;;19.40;10.13;;;77.30;2227.20;;;;;;5100492;28;20035;-71
2021/03/06 08:11:06;;;;;;;15.23;10.00;;;77.00;2227.20;;;;;;5100603;28;20325;-70
2021/03/06 08:13:41;;;;;;;18.60;10.27;;;76.80;2227.20;;;;;;5099648;28;20126;-71
2021/03/06 08:16:33;;;;;;;18.23;11.23;;;51.90;2227.20;;;;;;5089825;28;20078;-70
2021/03/06 08:19:14;;;;;;;17.77;11.68;;;52.00;2227.20;;;;;;5088428;28;20039;-71
2021/03/06 08:21:48;;;;;;;21.13;11.50;;;77.10;2227.20;;;;;;5099426;28;20066;-71
2021/03/06 08:26:53;;;;;;;17.58;9.05;;;77.50;2227.20;;;;;;5098669;28;20043;-70
2021/03/06 08:29:25;;;;;;;17.27;9.25;;;102.50;2227.20;;;;;;5096932;28;20023;-71
2021/03/06 08:31:58;;;;;;;14.23;8.82;;;102.50;2227.20;;;;;;5097240;28;20016;-71
2021/03/06 08:34:32;;;;;;;15.20;8.27;;;102.40;2227.20;;;;;;5098640;28;20333;-70
2021/03/06 08:39:50;;;;;;;12.95;7.47;;;102.60;2227.20;;;;;;5098447;28;20028;-71
2021/03/06 08:42:18;;;;;;;15.70;9.57;;;102.40;2227.20;;;;;;5096960;28;20020;-72
2021/03/06 08:44:44;;;;;;;14.68;8.98;;;102.40;2227.20;;;;;;5089641;28;20341;-71
2021/03/06 08:47:10;;;;;;;13.85;9.15;;;102.60;2227.20;;;;;;5087366;28;20020;-70
2021/03/06 08:49:37;;;;;;;15.25;9.40;;;102.90;2227.20;;;;;;5099005;28;20031;-72
2021/03/06 08:52:04;;;;;;;14.73;7.50;;;103.20;2227.20;;;;;;5099070;28;20048;-70
2021/03/06 08:54:41;;;;;;;11.50;7.65;;;103.00;2227.20;;;;;;5097665;28;20151;-71
2021/03/06 08:57:30;;;;;;;14.85;8.13;;;103.00;2227.20;;;;;;5097819;28;20097;-70
2021/03/06 08:59:57;;;;;;;12.65;7.40;;;102.60;2227.20;;;;;;5097629;28;20054;-70
2021/03/06 09:02:28;;;;;;;12.50;7.20;;;77.60;2227.20;;;;;;5095043;28;20030;-70
2021/03/06 09:05:11;;;;;;;13.02;7.50;;;77.40;2227.20;;;;;;5092704;28;20028;-70
2021/03/06 09:07:51;;;;;;;11.20;7.45;;;77.40;2227.20;;;;;;5097331;28;20340;-70
2021/03/06 09:10:26;;;;;;;14.15;8.10;;;102.50;2227.20;;;;;;5094477;28;20031;-70
2021/03/06 09:12:57;;;;;;;9.93;6.47;;;128.00;2252.80;;;;;;5088206;28;20027;-70
2021/03/06 09:15:46;;;;;;;12.85;7.22;;;128.10;2252.80;;;;;;5086578;28;20029;-70
2021/03/06 09:18:29;;;;;;;11.63;6.63;;;103.30;2227.20;;;;;;5045492;28;20069;-70
2021/03/06 09:21:03;;;;;;;10.57;6.15;;;103.30;2227.20;;;;;;5046037;28;20123;-69
2021/03/06 09:23:36;;;;;;;9.50;6.10;;;128.00;2227.20;;;;;;5045900;28;20052;-69
2021/03/06 09:26:18;;;;;;;9.43;6.05;;;128.30;2252.80;;;;;;5049460;28;20020;-70
2021/03/06 09:28:49;;;;;;;13.75;6.97;;;103.30;2227.20;;;;;;5043296;28;20029;-69
2021/03/06 09:31:21;;;;;;;16.02;7.68;;;103.00;2227.20;;;;;;5035580;28;20075;-69
2021/03/06 09:33:47;;;;;;;9.55;6.45;;;103.30;2227.20;;;;;;5042994;28;20048;-68
2021/03/06 09:36:16;;;;;;;11.90;6.28;;;103.10;2227.20;;;;;;5044698;28;20435;-71
2021/03/06 09:38:50;;;;;;;14.07;6.85;;;103.00;2227.20;;;;;;5040235;28;20059;-69
2021/03/06 09:41:25;;;;;;;11.30;6.68;;;103.30;2227.20;;;;;;5044839;28;20123;-68
2021/03/06 09:43:56;;;;;;;11.63;5.75;;;103.30;2227.20;;;;;;5046137;28;20355;-70
2021/03/06 09:46:27;;;;;;;13.75;6.22;;;103.20;2227.20;;;;;;5045774;28;20415;-70
2021/03/06 09:49:06;;;;;;;12.10;7.85;;;102.80;2227.20;;;;;;5044004;28;20485;-70
2021/03/06 09:51:51;;;;;;;10.20;6.05;;;103.10;2227.20;;;;;;5044063;28;20478;-69
2021/03/06 09:54:22;;;;;;;13.05;6.85;;;103.10;2150.40;;;;;;5051752;28;20075;-75
2021/03/06 09:56:56;;;;;;;10.38;6.45;;;103.20;2227.20;;;;;;5091524;28;20025;-73
2021/03/06 09:59:23;;;;;;;9.48;6.30;;;128.30;2201.60;;;;;;5080921;28;20025;-69
2021/03/06 10:01:49;;;;;;;10.10;5.20;;;128.90;2124.80;;;;;;5080440;28;20016;-69
2021/03/06 10:04:23;;;;;;;10.90;6.30;;;128.40;2099.20;;;;;;5080707;28;20366;-69
2021/03/06 10:06:59;;;;;;;9.15;5.80;;;128.30;2124.80;;;;;;5084946;28;20314;-70
2021/03/06 10:09:35;;;;;;;11.52;6.05;;;128.60;2150.40;;;;;;5080157;28;20032;-69
2021/03/06 10:12:07;;;;;;;11.30;6.03;;;128.50;2176.00;;;;;;5080801;28;20393;-69
2021/03/06 10:14:33;;;;;;;11.43;5.93;;;128.80;2048.00;;;;;;5092168;28;20097;-70
2021/03/06 10:17:02;;;;;;;9.52;5.00;;;154.10;2099.20;;;;;;5091010;28;20028;-70
2021/03/06 10:19:46;;;;;;;10.00;5.53;;;153.80;1945.60;;;;;;5082625;28;20020;-76
2021/03/06 10:22:14;;;;;;;10.68;5.70;;;153.60;1920.00;;;;;;5082916;28;20051;-70
2021/03/06 10:24:59;;;;;;;9.15;5.20;;;153.60;1971.20;;;;;;5082318;28;20033;-72
2021/03/06 10:27:39;;;;;;;9.90;5.68;;;153.60;1996.80;;;;;;5078727;28;20028;-72
2021/03/06 10:30:27;;;;;;;10.95;5.95;;;153.80;1996.80;;;;;;5085494;28;20025;-69
2021/03/06 10:33:03;;;;;;;9.45;6.10;;;128.60;1971.20;;;;;;5085326;28;20026;-70
2021/03/06 10:35:49;;;;;;;16.52;6.78;;;128.60;1996.80;;;;;;5084779;28;20021;-70
2021/03/06 10:38:25;;;;;;;14.27;7.20;;;128.70;1971.20;;;;;;5086165;28;20414;-69
2021/03/06 10:40:52;;;;;;;11.68;6.03;;;128.90;1971.20;;;;;;5086057;28;20020;-70
2021/03/06 10:43:34;;;;;;;11.80;6.30;;;153.70;1920.00;;;;;;5083164;28;20330;-70
2021/03/06 10:46:20;;;;;;;10.77;6.47;;;154.00;1945.60;;;;;;5083455;28;20020;-70
2021/03/06 10:48:54;;;;;;;11.98;5.88;;;153.90;1920.00;;;;;;5085400;28;20130;-69
2021/03/06 10:51:24;;;;;;;16.33;8.10;;;154.00;1920.00;;;;;;5083000;28;20023;-70
2021/03/06 10:54:06;;;;;;;10.32;6.78;;;154.30;1945.60;;;;;;5084873;28;20413;-70
2021/03/06 10:56:32;;;;;;;10.18;6.35;;;154.40;1868.80;;;;;;5079744;28;20024;-69
2021/03/06 10:58:58;;;;;;;11.10;5.65;;;154.10;1894.40;;;;;;5075092;28;20517;-70
2021/03/06 11:01:25;;;;;;;10.40;6.15;;;128.80;1868.80;;;;;;5075700;28;20111;-70
2021/03/06 11:03:52;;;;;;;10.60;6.57;;;128.70;1945.60;;;;;;5075947;28;20330;-70
2021/03/06 11:06:19;;;;;;;10.30;6.32;;;153.70;1920.00;;;;;;5082886;28;20377;-71
2021/03/06 11:09:07;;;;;;;9.82;6.10;;;154.10;1868.80;;;;;;5085876;28;20406;-71
2021/03/06 11:11:33;;;;;;;10.48;5.65;;;154.00;1817.60;;;;;;5084904;28;20016;-69
2021/03/06 11:13:59;;;;;;;8.73;5.50;;;154.40;1843.20;;;;;;5083301;28;20029;-68
2021/03/06 11:16:38;;;;;;;8.23;4.93;;;154.50;1740.80;;;;;;5083364;28;20024;-70
2021/03/06 11:19:04;;;;;;;11.93;6.88;;;153.90;1715.20;;;;;;5083837;28;20024;-69
2021/03/06 11:21:30;;;;;;;9.50;5.25;;;154.30;1792.00;;;;;;5081466;28;20039;-70
2021/03/06 11:23:56;;;;;;;12.52;6.18;;;179.20;1766.40;;;;;;5084555;28;20035;-71
2021/03/06 11:26:23;;;;;;;8.95;5.18;;;179.70;1664.00;;;;;;5083837;28;20023;-72
2021/03/06 11:28:49;;;;;;;10.30;5.70;;;179.50;1638.40;;;;;;5074300;28;20059;-70
2021/03/06 11:31:15;;;;;;;7.25;5.00;;;179.40;1638.40;;;;;;5075119;28;20025;-70
2021/03/06 11:33:40;;;;;;;23.15;5.70;;;179.90;1612.80;;;;;;5076503;28;20097;-72
2021/03/06 11:36:06;;;;;;;8.23;4.68;;;179.90;1612.80;;;;;;5076067;28;20067;-72
2021/03/06 11:38:32;;;;;;;17.70;5.50;;;179.40;1587.20;;;;;;5075202;28;20032;-71
2021/03/06 11:40:58;;;;;;;8.38;4.53;;;180.00;1587.20;;;;;;5078015;28;20081;-69
2021/03/06 11:43:24;;;;;;;9.30;5.65;;;179.40;1612.80;;;;;;5094397;28;20431;-71
2021/03/06 11:45:50;;;;;;;8.18;4.65;;;154.50;1689.60;;;;;;5094814;28;20107;-68
2021/03/06 11:48:16;;;;;;;7.75;4.50;;;179.70;1612.80;;;;;;5094204;28;20016;-70
2021/03/06 11:50:45;;;;;;;8.00;5.00;;;180.10;1536.00;;;;;;5094713;28;20078;-70
2021/03/06 11:53:11;;;;;;;6.80;4.45;;;205.00;1510.40;;;;;;5094416;28;20048;-70
2021/03/06 11:55:37;;;;;;;7.28;4.38;;;205.20;1484.80;;;;;;5094672;28;20413;-70
2021/03/06 11:58:04;;;;;;;9.80;4.82;;;205.70;1510.40;;;;;;5095662;28;20024;-72
2021/03/06 12:00:32;;;;;;;8.30;5.07;;;230.80;1408.00;;;;;;5094411;28;20016;-70
2021/03/06 12:02:58;;;;;;;9.73;4.95;;;256.10;1382.40;;;;;;5096431;28;20031;-71
2021/03/06 12:05:24;;;;;;;8.50;4.78;;;230.60;1433.60;;;;;;5096630;28;20028;-70
2021/03/06 12:07:52;;;;;;;7.90;4.80;;;205.30;1433.60;;;;;;5098298;28;20027;-71
2021/03/06 12:10:21;;;;;;;6.30;4.00;;;204.90;1484.80;;;;;;5098107;28;20020;-70
2021/03/06 12:12:48;;;;;;;6.60;4.13;;;308.00;1228.80;;;;;;5099384;28;20062;-69
2021/03/06 12:15:16;;;;;;;7.82;3.78;;;435.30;998.40;;;;;;5099167;28;20032;-72
2021/03/06 12:17:43;;;;;;;9.45;3.78;;;486.40;947.20;;;;;;5096615;28;20028;-72
2021/03/06 12:20:10;;;;;;;7.60;4.07;;;487.10;896.00;;;;;;5098371;28;20024;-72
2021/03/06 12:22:37;;;;;;;8.05;4.00;;;512.80;844.80;;;;;;5099033;28;20074;-72
2021/03/06 12:25:05;;;;;;;12.00;4.30;;;563.50;844.80;;;;;;5099217;28;20028;-72
2021/03/06 12:27:32;;;;;;;8.52;3.10;;;614.60;768.00;;;;;;5098274;28;20169;-72
2021/03/06 12:29:57;;;;;;;14.27;4.30;;;460.80;870.40;;;;;;5098694;28;20306;-72
2021/03/06 12:32:23;;;;;;;7.75;4.68;;;333.50;998.40;;;;;;5098670;28;20039;-72